Terminal Aerodrome Forecast
Issued by NWS

Home | Current Version | Previous Version | Text Only | Print | Product List | Glossary On
Versions: 1 2 3 4 5 6 7 8 9 10 11 12 13 14 15 16 17 18 19 20 21 22 23 24 25 26 27 28 29 30
000
FTUS43 KDDC 231139
TAFGCK
TAF
KGCK 231139Z 2312/2412 30013G20KT P6SM FEW200
     FM231400 34028G38KT P6SM OVC040
     FM231800 35032G42KT P6SM -SN OVC020
     FM240100 34020G26KT P6SM OVC025=

USA.gov is the U.S. government's official web portal to all federal, state and local government web resources and services.